AAL2074 KMIA-KLGA
Flight info
| Callsign | AAL2074 |
|---|---|
| Flight time | N/A |
| Altitude | 36000 |
| Route | FOLZZ3 ALYRA GRUBR Y299 SEELO GARIC Q107 HURTS PROUD2 |
| Aircraft | B738/M-SDE2E3FGHIRWXY/LB1 |
Departure
| Time | 2026-05-07 19:58 |
|---|---|
| Airport | Miami International Airport (KMIA) |
Arrival
| Time | N/A |
|---|---|
| Airport | LaGuardia Airport (KLGA) |
| Time | Latitude | Longitude | Altitude | Speed | Heading |
|---|---|---|---|---|---|
| 2026-05-07 19:55 | 25.79945 | -80.28532 | 12 ft | 0 kts | 268° |
| 2026-05-07 19:55 | 25.79942 | -80.28608 | 12 ft | 19 kts | 267° |
| 2026-05-07 19:55 | 25.79935 | -80.28781 | 13 ft | 20 kts | 267° |
| 2026-05-07 19:56 | 25.79926 | -80.28963 | 12 ft | 26 kts | 268° |
| 2026-05-07 19:56 | 25.79917 | -80.29127 | 12 ft | 30 kts | 265° |
| 2026-05-07 19:56 | 25.79908 | -80.29384 | 12 ft | 35 kts | 266° |
| 2026-05-07 19:56 | 25.79900 | -80.29621 | 12 ft | 26 kts | 266° |
| 2026-05-07 19:57 | 25.79929 | -80.29812 | 12 ft | 24 kts | 288° |
| 2026-05-07 19:57 | 25.79978 | -80.29989 | 13 ft | 23 kts | 286° |
| 2026-05-07 19:57 | 25.80051 | -80.30093 | 12 ft | 13 kts | 40° |
| 2026-05-07 19:57 | 25.80073 | -80.29998 | 12 ft | 14 kts | 85° |
| 2026-05-07 19:58 | 25.80087 | -80.29600 | 13 ft | 89 kts | 88° |
| 2026-05-07 19:58 | 25.80128 | -80.28651 | 13 ft | 153 kts | 88° |
| 2026-05-07 19:58 | 25.80222 | -80.27348 | 350 ft | 174 kts | 89° |
| 2026-05-07 19:58 | 25.80260 | -80.26066 | 1207 ft | 168 kts | 92° |
| 2026-05-07 19:59 | 25.79986 | -80.24753 | 1716 ft | 182 kts | 118° |
| 2026-05-07 19:59 | 25.79332 | -80.23493 | 2150 ft | 195 kts | 121° |
| 2026-05-07 19:59 | 25.78641 | -80.22098 | 2537 ft | 213 kts | 118° |
| 2026-05-07 19:59 | 25.77949 | -80.20577 | 2956 ft | 230 kts | 117° |
| 2026-05-07 20:00 | 25.77211 | -80.18931 | 3406 ft | 245 kts | 116° |
| 2026-05-07 20:00 | 25.76888 | -80.18217 | 3559 ft | 254 kts | 117° |